Terminal Aerodrome Forecast
Issued by NWS

Current Version | Previous Version | Text Only | Print | Product List | Glossary On
Versions: 1 2 3 4 5 6 7 8 9 10 11 12
005
FTUS44 KEPZ 130520
TAFDMN
TAF
KDMN 130520Z 1306/1406 35006KT P6SM SKC
     FM131500 26007KT P6SM SCT200
     FM140200 32006KT P6SM SCT200=

USA.gov is the U.S. government's official web portal to all federal, state and local government web resources and services.